sensor_id;sensor_type;location;lat;lon;timestamp;P1;durP1;ratioP1;P2;durP2;ratioP2
77457;SDS011;66541;49.346;8.648;2023-02-19T00:03:34;7.10;;;2.15;;
77457;SDS011;66541;49.346;8.648;2023-02-19T00:06:00;8.20;;;2.65;;
77457;SDS011;66541;49.346;8.648;2023-02-19T00:08:26;7.00;;;2.17;;
77457;SDS011;66541;49.346;8.648;2023-02-19T00:10:53;7.35;;;2.25;;
77457;SDS011;66541;49.346;8.648;2023-02-19T00:13:19;6.13;;;1.92;;
77457;SDS011;66541;49.346;8.648;2023-02-19T00:15:44;7.18;;;1.98;;
77457;SDS011;66541;49.346;8.648;2023-02-19T00:18:09;6.30;;;2.05;;
77457;SDS011;66541;49.346;8.648;2023-02-19T00:20:35;6.55;;;1.98;;
77457;SDS011;66541;49.346;8.648;2023-02-19T00:23:00;6.35;;;2.10;;
77457;SDS011;66541;49.346;8.648;2023-02-19T00:25:25;7.30;;;2.30;;
77457;SDS011;66541;49.346;8.648;2023-02-19T00:27:53;6.80;;;1.98;;
77457;SDS011;66541;49.346;8.648;2023-02-19T00:30:18;6.68;;;1.80;;
77457;SDS011;66541;49.346;8.648;2023-02-19T00:32:48;6.60;;;1.88;;
77457;SDS011;66541;49.346;8.648;2023-02-19T00:37:39;7.17;;;2.03;;
77457;SDS011;66541;49.346;8.648;2023-02-19T00:40:05;5.90;;;1.80;;
77457;SDS011;66541;49.346;8.648;2023-02-19T00:42:30;5.72;;;1.73;;
77457;SDS011;66541;49.346;8.648;2023-02-19T00:44:55;6.15;;;1.83;;
77457;SDS011;66541;49.346;8.648;2023-02-19T00:47:21;6.78;;;2.13;;
77457;SDS011;66541;49.346;8.648;2023-02-19T00:49:46;6.25;;;1.63;;
77457;SDS011;66541;49.346;8.648;2023-02-19T00:52:11;5.90;;;1.67;;
77457;SDS011;66541;49.346;8.648;2023-02-19T00:54:37;7.65;;;1.85;;
77457;SDS011;66541;49.346;8.648;2023-02-19T00:57:02;6.32;;;1.90;;
77457;SDS011;66541;49.346;8.648;2023-02-19T00:59:27;5.63;;;1.58;;
77457;SDS011;66541;49.346;8.648;2023-02-19T01:01:53;5.65;;;1.70;;
77457;SDS011;66541;49.346;8.648;2023-02-19T01:04:18;6.05;;;1.50;;
77457;SDS011;66541;49.346;8.648;2023-02-19T01:06:43;5.53;;;1.50;;
77457;SDS011;66541;49.346;8.648;2023-02-19T01:09:09;5.90;;;1.30;;
77457;SDS011;66541;49.346;8.648;2023-02-19T01:11:34;5.18;;;1.50;;
77457;SDS011;66541;49.346;8.648;2023-02-19T01:13:59;4.72;;;0.93;;
77457;SDS011;66541;49.346;8.648;2023-02-19T01:16:25;4.07;;;1.00;;
77457;SDS011;66541;49.346;8.648;2023-02-19T01:18:51;5.03;;;1.10;;
77457;SDS011;66541;49.346;8.648;2023-02-19T01:21:21;5.00;;;1.20;;
77457;SDS011;66541;49.346;8.648;2023-02-19T01:23:49;4.10;;;1.05;;
77457;SDS011;66541;49.346;8.648;2023-02-19T01:26:16;4.53;;;1.10;;
77457;SDS011;66541;49.346;8.648;2023-02-19T01:28:44;4.47;;;0.88;;
77457;SDS011;66541;49.346;8.648;2023-02-19T01:31:12;3.80;;;0.82;;
77457;SDS011;66541;49.346;8.648;2023-02-19T01:33:38;4.25;;;0.85;;
77457;SDS011;66541;49.346;8.648;2023-02-19T01:36:04;3.88;;;0.80;;
77457;SDS011;66541;49.346;8.648;2023-02-19T01:38:30;3.85;;;0.88;;
77457;SDS011;66541;49.346;8.648;2023-02-19T01:40:59;3.25;;;0.75;;
77457;SDS011;66541;49.346;8.648;2023-02-19T01:43:30;4.80;;;1.10;;
77457;SDS011;66541;49.346;8.648;2023-02-19T01:45:56;2.80;;;0.63;;
77457;SDS011;66541;49.346;8.648;2023-02-19T01:50:59;4.85;;;0.80;;
77457;SDS011;66541;49.346;8.648;2023-02-19T01:53:28;3.67;;;0.90;;
77457;SDS011;66541;49.346;8.648;2023-02-19T01:55:56;5.32;;;0.73;;
77457;SDS011;66541;49.346;8.648;2023-02-19T01:58:23;2.10;;;0.40;;
77457;SDS011;66541;49.346;8.648;2023-02-19T02:00:50;4.15;;;0.40;;
77457;SDS011;66541;49.346;8.648;2023-02-19T02:03:16;1.65;;;0.40;;
77457;SDS011;66541;49.346;8.648;2023-02-19T02:08:26;3.58;;;0.45;;
77457;SDS011;66541;49.346;8.648;2023-02-19T02:11:10;3.30;;;0.45;;
77457;SDS011;66541;49.346;8.648;2023-02-19T02:13:35;1.73;;;0.30;;
77457;SDS011;66541;49.346;8.648;2023-02-19T02:23:48;2.38;;;0.30;;
77457;SDS011;66541;49.346;8.648;2023-02-19T02:29:07;0.75;;;0.20;;
77457;SDS011;66541;49.346;8.648;2023-02-19T02:32:09;1.88;;;0.30;;
77457;SDS011;66541;49.346;8.648;2023-02-19T02:34:40;1.45;;;0.20;;
77457;SDS011;66541;49.346;8.648;2023-02-19T02:37:10;2.53;;;0.30;;
77457;SDS011;66541;49.346;8.648;2023-02-19T02:39:36;1.48;;;0.20;;
77457;SDS011;66541;49.346;8.648;2023-02-19T02:42:02;1.13;;;0.30;;
77457;SDS011;66541;49.346;8.648;2023-02-19T02:44:46;1.23;;;0.22;;
77457;SDS011;66541;49.346;8.648;2023-02-19T02:47:32;1.70;;;0.22;;
77457;SDS011;66541;49.346;8.648;2023-02-19T02:50:14;1.20;;;0.10;;
77457;SDS011;66541;49.346;8.648;2023-02-19T02:52:41;1.45;;;0.22;;
77457;SDS011;66541;49.346;8.648;2023-02-19T02:55:27;1.80;;;0.32;;
77457;SDS011;66541;49.346;8.648;2023-02-19T02:57:54;1.85;;;0.20;;
77457;SDS011;66541;49.346;8.648;2023-02-19T03:00:20;1.50;;;0.30;;
77457;SDS011;66541;49.346;8.648;2023-02-19T03:02:47;2.17;;;0.35;;
77457;SDS011;66541;49.346;8.648;2023-02-19T03:05:13;1.55;;;0.30;;
77457;SDS011;66541;49.346;8.648;2023-02-19T03:10:42;3.15;;;0.40;;
77457;SDS011;66541;49.346;8.648;2023-02-19T03:13:11;2.65;;;0.40;;
77457;SDS011;66541;49.346;8.648;2023-02-19T03:16:00;2.42;;;0.38;;
77457;SDS011;66541;49.346;8.648;2023-02-19T03:18:48;3.08;;;0.50;;
77457;SDS011;66541;49.346;8.648;2023-02-19T03:21:35;3.03;;;0.55;;
77457;SDS011;66541;49.346;8.648;2023-02-19T03:24:02;3.30;;;0.52;;
77457;SDS011;66541;49.346;8.648;2023-02-19T03:26:46;3.10;;;0.50;;
77457;SDS011;66541;49.346;8.648;2023-02-19T03:29:17;2.85;;;0.60;;
77457;SDS011;66541;49.346;8.648;2023-02-19T03:34:51;4.07;;;0.43;;
77457;SDS011;66541;49.346;8.648;2023-02-19T03:37:32;3.08;;;0.50;;
77457;SDS011;66541;49.346;8.648;2023-02-19T03:40:01;3.75;;;0.60;;
77457;SDS011;66541;49.346;8.648;2023-02-19T03:42:30;2.42;;;0.60;;
77457;SDS011;66541;49.346;8.648;2023-02-19T03:45:13;3.38;;;0.55;;
77457;SDS011;66541;49.346;8.648;2023-02-19T03:47:54;3.13;;;0.57;;
77457;SDS011;66541;49.346;8.648;2023-02-19T03:50:28;4.00;;;0.73;;
77457;SDS011;66541;49.346;8.648;2023-02-19T03:55:29;3.95;;;0.82;;
77457;SDS011;66541;49.346;8.648;2023-02-19T04:03:21;3.95;;;0.80;;
77457;SDS011;66541;49.346;8.648;2023-02-19T04:06:07;3.80;;;0.63;;
77457;SDS011;66541;49.346;8.648;2023-02-19T04:08:34;4.50;;;0.90;;
77457;SDS011;66541;49.346;8.648;2023-02-19T04:11:01;4.90;;;1.20;;
77457;SDS011;66541;49.346;8.648;2023-02-19T04:13:35;4.97;;;1.17;;
77457;SDS011;66541;49.346;8.648;2023-02-19T04:16:04;3.85;;;0.93;;
77457;SDS011;66541;49.346;8.648;2023-02-19T04:18:33;5.05;;;1.13;;
77457;SDS011;66541;49.346;8.648;2023-02-19T04:21:01;4.75;;;0.93;;
77457;SDS011;66541;49.346;8.648;2023-02-19T04:23:28;5.18;;;0.93;;
77457;SDS011;66541;49.346;8.648;2023-02-19T04:25:56;5.05;;;1.10;;
77457;SDS011;66541;49.346;8.648;2023-02-19T04:28:23;4.32;;;1.00;;
77457;SDS011;66541;49.346;8.648;2023-02-19T04:30:49;5.68;;;1.15;;
77457;SDS011;66541;49.346;8.648;2023-02-19T04:33:14;4.07;;;0.90;;
77457;SDS011;66541;49.346;8.648;2023-02-19T04:35:39;5.40;;;1.08;;
77457;SDS011;66541;49.346;8.648;2023-02-19T04:38:05;4.68;;;0.77;;
77457;SDS011;66541;49.346;8.648;2023-02-19T04:40:30;7.28;;;1.50;;
77457;SDS011;66541;49.346;8.648;2023-02-19T04:42:55;4.50;;;0.90;;
77457;SDS011;66541;49.346;8.648;2023-02-19T04:45:21;5.50;;;1.48;;
77457;SDS011;66541;49.346;8.648;2023-02-19T04:47:46;5.07;;;1.02;;
77457;SDS011;66541;49.346;8.648;2023-02-19T04:50:11;5.47;;;1.23;;
77457;SDS011;66541;49.346;8.648;2023-02-19T04:52:37;5.53;;;1.25;;
77457;SDS011;66541;49.346;8.648;2023-02-19T04:55:03;6.53;;;1.60;;
77457;SDS011;66541;49.346;8.648;2023-02-19T04:57:28;5.53;;;1.10;;
77457;SDS011;66541;49.346;8.648;2023-02-19T04:59:54;4.57;;;0.90;;
77457;SDS011;66541;49.346;8.648;2023-02-19T05:02:19;5.47;;;1.10;;
77457;SDS011;66541;49.346;8.648;2023-02-19T05:04:44;4.07;;;0.73;;
77457;SDS011;66541;49.346;8.648;2023-02-19T05:07:10;4.70;;;1.00;;
77457;SDS011;66541;49.346;8.648;2023-02-19T05:09:35;5.13;;;1.23;;
77457;SDS011;66541;49.346;8.648;2023-02-19T05:12:00;5.13;;;1.00;;
77457;SDS011;66541;49.346;8.648;2023-02-19T05:14:26;6.03;;;1.15;;
77457;SDS011;66541;49.346;8.648;2023-02-19T05:16:51;5.13;;;1.17;;
77457;SDS011;66541;49.346;8.648;2023-02-19T05:19:16;6.85;;;1.20;;
77457;SDS011;66541;49.346;8.648;2023-02-19T05:21:42;5.80;;;1.10;;
77457;SDS011;66541;49.346;8.648;2023-02-19T05:24:07;4.85;;;1.13;;
77457;SDS011;66541;49.346;8.648;2023-02-19T05:26:35;5.20;;;1.20;;
77457;SDS011;66541;49.346;8.648;2023-02-19T05:29:00;5.30;;;1.30;;
77457;SDS011;66541;49.346;8.648;2023-02-19T05:31:25;5.25;;;1.10;;
77457;SDS011;66541;49.346;8.648;2023-02-19T05:33:51;5.13;;;1.10;;
77457;SDS011;66541;49.346;8.648;2023-02-19T05:36:17;5.75;;;0.98;;
77457;SDS011;66541;49.346;8.648;2023-02-19T05:38:44;5.53;;;1.10;;
77457;SDS011;66541;49.346;8.648;2023-02-19T05:41:13;5.72;;;1.27;;
77457;SDS011;66541;49.346;8.648;2023-02-19T05:43:43;5.85;;;1.08;;
77457;SDS011;66541;49.346;8.648;2023-02-19T05:46:10;5.60;;;1.20;;
77457;SDS011;66541;49.346;8.648;2023-02-19T05:48:36;5.93;;;1.33;;
77457;SDS011;66541;49.346;8.648;2023-02-19T05:51:06;5.97;;;1.40;;
77457;SDS011;66541;49.346;8.648;2023-02-19T05:53:32;5.63;;;1.67;;
77457;SDS011;66541;49.346;8.648;2023-02-19T05:55:58;5.55;;;1.13;;
77457;SDS011;66541;49.346;8.648;2023-02-19T05:58:23;5.40;;;1.50;;
77457;SDS011;66541;49.346;8.648;2023-02-19T06:00:49;5.82;;;1.50;;
77457;SDS011;66541;49.346;8.648;2023-02-19T06:03:14;4.97;;;1.30;;
77457;SDS011;66541;49.346;8.648;2023-02-19T06:05:40;5.68;;;1.25;;
77457;SDS011;66541;49.346;8.648;2023-02-19T06:08:05;5.88;;;1.30;;
77457;SDS011;66541;49.346;8.648;2023-02-19T06:10:30;5.70;;;1.52;;
77457;SDS011;66541;49.346;8.648;2023-02-19T06:12:56;5.28;;;1.13;;
77457;SDS011;66541;49.346;8.648;2023-02-19T06:15:21;5.40;;;1.30;;
77457;SDS011;66541;49.346;8.648;2023-02-19T06:17:47;5.15;;;1.25;;
77457;SDS011;66541;49.346;8.648;2023-02-19T06:20:13;4.85;;;1.20;;
77457;SDS011;66541;49.346;8.648;2023-02-19T06:22:39;6.32;;;1.45;;
77457;SDS011;66541;49.346;8.648;2023-02-19T06:25:04;5.78;;;1.67;;
77457;SDS011;66541;49.346;8.648;2023-02-19T06:27:31;6.85;;;1.50;;
77457;SDS011;66541;49.346;8.648;2023-02-19T06:29:57;6.05;;;1.40;;
77457;SDS011;66541;49.346;8.648;2023-02-19T06:32:22;5.00;;;1.20;;
77457;SDS011;66541;49.346;8.648;2023-02-19T06:34:48;6.40;;;1.40;;
77457;SDS011;66541;49.346;8.648;2023-02-19T06:37:13;5.88;;;1.23;;
77457;SDS011;66541;49.346;8.648;2023-02-19T06:39:38;5.28;;;1.08;;
77457;SDS011;66541;49.346;8.648;2023-02-19T06:42:04;5.05;;;1.40;;
77457;SDS011;66541;49.346;8.648;2023-02-19T06:44:29;5.93;;;1.48;;
77457;SDS011;66541;49.346;8.648;2023-02-19T06:46:54;5.47;;;1.20;;
77457;SDS011;66541;49.346;8.648;2023-02-19T06:49:20;5.32;;;1.40;;
77457;SDS011;66541;49.346;8.648;2023-02-19T06:51:45;6.18;;;1.50;;
77457;SDS011;66541;49.346;8.648;2023-02-19T06:54:11;5.70;;;1.40;;
77457;SDS011;66541;49.346;8.648;2023-02-19T06:56:36;5.28;;;1.35;;
77457;SDS011;66541;49.346;8.648;2023-02-19T06:59:04;5.03;;;1.30;;
77457;SDS011;66541;49.346;8.648;2023-02-19T07:01:38;5.85;;;1.10;;
77457;SDS011;66541;49.346;8.648;2023-02-19T07:04:04;6.03;;;1.40;;
77457;SDS011;66541;49.346;8.648;2023-02-19T07:06:31;5.53;;;1.33;;
77457;SDS011;66541;49.346;8.648;2023-02-19T07:08:57;5.53;;;1.17;;
77457;SDS011;66541;49.346;8.648;2023-02-19T07:11:23;6.55;;;1.65;;
77457;SDS011;66541;49.346;8.648;2023-02-19T07:13:55;5.80;;;1.48;;
77457;SDS011;66541;49.346;8.648;2023-02-19T07:16:21;10.75;;;1.60;;
77457;SDS011;66541;49.346;8.648;2023-02-19T07:18:47;4.78;;;1.30;;
77457;SDS011;66541;49.346;8.648;2023-02-19T07:21:13;6.95;;;1.65;;
77457;SDS011;66541;49.346;8.648;2023-02-19T07:23:39;6.22;;;1.38;;
77457;SDS011;66541;49.346;8.648;2023-02-19T07:26:09;5.13;;;1.40;;
77457;SDS011;66541;49.346;8.648;2023-02-19T07:28:35;4.50;;;0.80;;
77457;SDS011;66541;49.346;8.648;2023-02-19T07:31:00;4.85;;;1.13;;
77457;SDS011;66541;49.346;8.648;2023-02-19T07:33:27;5.85;;;1.35;;
77457;SDS011;66541;49.346;8.648;2023-02-19T07:35:52;5.10;;;1.27;;
77457;SDS011;66541;49.346;8.648;2023-02-19T07:38:18;5.68;;;1.10;;
77457;SDS011;66541;49.346;8.648;2023-02-19T07:40:50;5.05;;;1.00;;
77457;SDS011;66541;49.346;8.648;2023-02-19T07:43:16;4.22;;;1.15;;
77457;SDS011;66541;49.346;8.648;2023-02-19T07:45:41;6.28;;;1.50;;
77457;SDS011;66541;49.346;8.648;2023-02-19T07:48:07;5.85;;;1.45;;
77457;SDS011;66541;49.346;8.648;2023-02-19T07:50:32;4.82;;;0.98;;
77457;SDS011;66541;49.346;8.648;2023-02-19T07:52:57;5.05;;;1.27;;
77457;SDS011;66541;49.346;8.648;2023-02-19T07:55:23;5.45;;;0.98;;
77457;SDS011;66541;49.346;8.648;2023-02-19T07:57:49;4.18;;;0.90;;
77457;SDS011;66541;49.346;8.648;2023-02-19T08:00:14;5.45;;;1.00;;
77457;SDS011;66541;49.346;8.648;2023-02-19T08:02:39;4.90;;;1.00;;
77457;SDS011;66541;49.346;8.648;2023-02-19T08:05:23;4.57;;;0.90;;
77457;SDS011;66541;49.346;8.648;2023-02-19T08:07:48;5.00;;;1.00;;
77457;SDS011;66541;49.346;8.648;2023-02-19T08:10:14;6.03;;;1.23;;
77457;SDS011;66541;49.346;8.648;2023-02-19T08:12:58;5.10;;;1.15;;
77457;SDS011;66541;49.346;8.648;2023-02-19T08:15:43;5.07;;;1.20;;
77457;SDS011;66541;49.346;8.648;2023-02-19T08:18:09;5.25;;;1.45;;
77457;SDS011;66541;49.346;8.648;2023-02-19T08:20:35;5.72;;;1.30;;
77457;SDS011;66541;49.346;8.648;2023-02-19T08:23:00;4.40;;;1.15;;
77457;SDS011;66541;49.346;8.648;2023-02-19T08:25:26;5.30;;;1.40;;
77457;SDS011;66541;49.346;8.648;2023-02-19T08:27:51;6.35;;;1.15;;
77457;SDS011;66541;49.346;8.648;2023-02-19T08:30:17;5.45;;;1.23;;
77457;SDS011;66541;49.346;8.648;2023-02-19T08:32:42;7.63;;;1.40;;
77457;SDS011;66541;49.346;8.648;2023-02-19T08:35:07;6.25;;;1.40;;
77457;SDS011;66541;49.346;8.648;2023-02-19T08:37:32;5.60;;;1.35;;
77457;SDS011;66541;49.346;8.648;2023-02-19T08:39:58;5.00;;;1.10;;
77457;SDS011;66541;49.346;8.648;2023-02-19T08:42:23;5.45;;;1.13;;
77457;SDS011;66541;49.346;8.648;2023-02-19T08:44:48;7.18;;;1.50;;
77457;SDS011;66541;49.346;8.648;2023-02-19T08:47:14;7.32;;;1.40;;
77457;SDS011;66541;49.346;8.648;2023-02-19T08:49:39;5.65;;;0.98;;
77457;SDS011;66541;49.346;8.648;2023-02-19T08:52:04;6.15;;;1.58;;
77457;SDS011;66541;49.346;8.648;2023-02-19T08:54:30;5.22;;;1.25;;
77457;SDS011;66541;49.346;8.648;2023-02-19T08:56:55;6.47;;;1.10;;
77457;SDS011;66541;49.346;8.648;2023-02-19T08:59:20;6.78;;;1.10;;
77457;SDS011;66541;49.346;8.648;2023-02-19T09:01:46;6.20;;;1.02;;
77457;SDS011;66541;49.346;8.648;2023-02-19T09:04:11;5.82;;;1.10;;
77457;SDS011;66541;49.346;8.648;2023-02-19T09:06:37;5.40;;;1.00;;
77457;SDS011;66541;49.346;8.648;2023-02-19T09:09:02;5.25;;;1.10;;
77457;SDS011;66541;49.346;8.648;2023-02-19T09:11:27;5.15;;;0.90;;
77457;SDS011;66541;49.346;8.648;2023-02-19T09:13:54;5.38;;;1.13;;
77457;SDS011;66541;49.346;8.648;2023-02-19T09:16:20;6.10;;;0.93;;
77457;SDS011;66541;49.346;8.648;2023-02-19T09:18:45;6.05;;;1.08;;
77457;SDS011;66541;49.346;8.648;2023-02-19T09:21:10;5.72;;;1.30;;
77457;SDS011;66541;49.346;8.648;2023-02-19T09:23:36;5.07;;;1.50;;
77457;SDS011;66541;49.346;8.648;2023-02-19T09:26:02;5.25;;;1.10;;
77457;SDS011;66541;49.346;8.648;2023-02-19T09:28:30;3.85;;;0.80;;
77457;SDS011;66541;49.346;8.648;2023-02-19T09:30:56;4.53;;;0.80;;
77457;SDS011;66541;49.346;8.648;2023-02-19T09:33:21;5.05;;;1.60;;
77457;SDS011;66541;49.346;8.648;2023-02-19T09:35:46;5.78;;;1.10;;
77457;SDS011;66541;49.346;8.648;2023-02-19T09:38:12;5.15;;;0.90;;
77457;SDS011;66541;49.346;8.648;2023-02-19T09:40:37;4.70;;;0.88;;
77457;SDS011;66541;49.346;8.648;2023-02-19T09:43:07;5.15;;;1.20;;
77457;SDS011;66541;49.346;8.648;2023-02-19T09:45:33;4.63;;;0.85;;
77457;SDS011;66541;49.346;8.648;2023-02-19T09:47:59;4.22;;;0.80;;
77457;SDS011;66541;49.346;8.648;2023-02-19T09:50:33;6.47;;;1.10;;
77457;SDS011;66541;49.346;8.648;2023-02-19T09:53:01;4.80;;;0.95;;
77457;SDS011;66541;49.346;8.648;2023-02-19T09:55:35;3.75;;;0.95;;
77457;SDS011;66541;49.346;8.648;2023-02-19T09:58:12;4.57;;;0.77;;
77457;SDS011;66541;49.346;8.648;2023-02-19T10:00:54;5.88;;;1.00;;
77457;SDS011;66541;49.346;8.648;2023-02-19T10:03:22;4.75;;;0.75;;
77457;SDS011;66541;49.346;8.648;2023-02-19T10:05:52;5.13;;;0.73;;
77457;SDS011;66541;49.346;8.648;2023-02-19T10:08:19;4.00;;;0.73;;
77457;SDS011;66541;49.346;8.648;2023-02-19T10:10:45;4.15;;;0.70;;
77457;SDS011;66541;49.346;8.648;2023-02-19T10:13:21;4.65;;;0.73;;
77457;SDS011;66541;49.346;8.648;2023-02-19T10:15:54;5.57;;;0.90;;
77457;SDS011;66541;49.346;8.648;2023-02-19T10:18:22;6.20;;;1.13;;
77457;SDS011;66541;49.346;8.648;2023-02-19T10:20:52;6.82;;;1.13;;
77457;SDS011;66541;49.346;8.648;2023-02-19T10:23:18;4.05;;;0.63;;
77457;SDS011;66541;49.346;8.648;2023-02-19T10:25:54;5.18;;;0.88;;
77457;SDS011;66541;49.346;8.648;2023-02-19T10:28:27;6.40;;;0.55;;
77457;SDS011;66541;49.346;8.648;2023-02-19T10:30:55;2.92;;;0.70;;
77457;SDS011;66541;49.346;8.648;2023-02-19T10:33:22;5.85;;;0.80;;
77457;SDS011;66541;49.346;8.648;2023-02-19T10:38:44;4.60;;;0.77;;
77457;SDS011;66541;49.346;8.648;2023-02-19T10:41:13;4.22;;;0.70;;
77457;SDS011;66541;49.346;8.648;2023-02-19T10:43:49;4.05;;;0.90;;
77457;SDS011;66541;49.346;8.648;2023-02-19T10:46:16;4.72;;;0.88;;
77457;SDS011;66541;49.346;8.648;2023-02-19T10:48:45;5.07;;;0.70;;
77457;SDS011;66541;49.346;8.648;2023-02-19T10:51:14;4.03;;;0.55;;
77457;SDS011;66541;49.346;8.648;2023-02-19T10:53:49;7.13;;;1.15;;
77457;SDS011;66541;49.346;8.648;2023-02-19T10:56:23;3.65;;;0.90;;
77457;SDS011;66541;49.346;8.648;2023-02-19T10:58:50;5.72;;;1.00;;
77457;SDS011;66541;49.346;8.648;2023-02-19T11:01:16;4.75;;;0.90;;
77457;SDS011;66541;49.346;8.648;2023-02-19T11:03:45;4.38;;;0.80;;
77457;SDS011;66541;49.346;8.648;2023-02-19T11:06:12;5.53;;;0.85;;
77457;SDS011;66541;49.346;8.648;2023-02-19T11:08:46;5.07;;;0.63;;
77457;SDS011;66541;49.346;8.648;2023-02-19T11:13:48;4.85;;;0.70;;
77457;SDS011;66541;49.346;8.648;2023-02-19T11:16:14;4.60;;;0.60;;
77457;SDS011;66541;49.346;8.648;2023-02-19T11:18:39;4.10;;;0.70;;
77457;SDS011;66541;49.346;8.648;2023-02-19T11:21:15;5.55;;;0.68;;
77457;SDS011;66541;49.346;8.648;2023-02-19T11:23:48;5.10;;;0.68;;
77457;SDS011;66541;49.346;8.648;2023-02-19T11:26:17;5.63;;;1.00;;
77457;SDS011;66541;49.346;8.648;2023-02-19T11:28:44;4.25;;;0.63;;
77457;SDS011;66541;49.346;8.648;2023-02-19T11:31:14;3.75;;;0.60;;
77457;SDS011;66541;49.346;8.648;2023-02-19T11:36:33;3.95;;;0.50;;
77457;SDS011;66541;49.346;8.648;2023-02-19T11:41:53;2.05;;;0.30;;
77457;SDS011;66541;49.346;8.648;2023-02-19T11:52:39;4.43;;;0.50;;
77457;SDS011;66541;49.346;8.648;2023-02-19T12:05:48;3.67;;;0.70;;
77457;SDS011;66541;49.346;8.648;2023-02-19T12:08:40;4.20;;;0.63;;
77457;SDS011;66541;49.346;8.648;2023-02-19T12:22:24;6.65;;;0.90;;
77457;SDS011;66541;49.346;8.648;2023-02-19T12:28:00;4.95;;;1.00;;
77457;SDS011;66541;49.346;8.648;2023-02-19T12:30:32;5.55;;;0.68;;
77457;SDS011;66541;49.346;8.648;2023-02-19T12:44:14;6.40;;;1.00;;
77457;SDS011;66541;49.346;8.648;2023-02-19T12:46:42;5.93;;;0.90;;
77457;SDS011;66541;49.346;8.648;2023-02-19T12:51:54;4.18;;;0.80;;
77457;SDS011;66541;49.346;8.648;2023-02-19T12:54:33;4.20;;;0.90;;
77457;SDS011;66541;49.346;8.648;2023-02-19T12:57:01;6.28;;;0.90;;
77457;SDS011;66541;49.346;8.648;2023-02-19T12:59:32;6.88;;;1.20;;
77457;SDS011;66541;49.346;8.648;2023-02-19T13:02:20;4.85;;;0.80;;
77457;SDS011;66541;49.346;8.648;2023-02-19T13:08:04;4.20;;;0.93;;
77457;SDS011;66541;49.346;8.648;2023-02-19T13:13:06;4.05;;;0.55;;
77457;SDS011;66541;49.346;8.648;2023-02-19T13:15:37;4.78;;;0.98;;
77457;SDS011;66541;49.346;8.648;2023-02-19T13:18:08;4.93;;;0.63;;
77457;SDS011;66541;49.346;8.648;2023-02-19T13:20:40;5.70;;;0.50;;
77457;SDS011;66541;49.346;8.648;2023-02-19T13:37:21;4.60;;;0.60;;
77457;SDS011;66541;49.346;8.648;2023-02-19T13:39:48;4.80;;;0.47;;
77457;SDS011;66541;49.346;8.648;2023-02-19T13:42:31;4.43;;;0.77;;
77457;SDS011;66541;49.346;8.648;2023-02-19T13:44:58;5.82;;;0.63;;
77457;SDS011;66541;49.346;8.648;2023-02-19T13:50:17;5.22;;;0.70;;
77457;SDS011;66541;49.346;8.648;2023-02-19T13:52:43;4.07;;;0.60;;
77457;SDS011;66541;49.346;8.648;2023-02-19T13:58:34;5.32;;;0.63;;
77457;SDS011;66541;49.346;8.648;2023-02-19T14:01:01;4.47;;;0.50;;
77457;SDS011;66541;49.346;8.648;2023-02-19T14:06:18;7.43;;;1.10;;
77457;SDS011;66541;49.346;8.648;2023-02-19T14:08:54;4.93;;;0.50;;
77457;SDS011;66541;49.346;8.648;2023-02-19T14:14:27;5.93;;;0.70;;
77457;SDS011;66541;49.346;8.648;2023-02-19T14:27:45;5.10;;;0.63;;
77457;SDS011;66541;49.346;8.648;2023-02-19T14:30:11;3.42;;;0.52;;
77457;SDS011;66541;49.346;8.648;2023-02-19T14:32:38;4.65;;;0.80;;
77457;SDS011;66541;49.346;8.648;2023-02-19T14:35:04;3.47;;;0.45;;
77457;SDS011;66541;49.346;8.648;2023-02-19T14:37:29;4.80;;;0.70;;
77457;SDS011;66541;49.346;8.648;2023-02-19T14:39:55;3.13;;;0.52;;
77457;SDS011;66541;49.346;8.648;2023-02-19T14:42:22;4.22;;;0.50;;
77457;SDS011;66541;49.346;8.648;2023-02-19T14:44:52;5.93;;;0.60;;
77457;SDS011;66541;49.346;8.648;2023-02-19T14:47:21;4.65;;;0.82;;
77457;SDS011;66541;49.346;8.648;2023-02-19T14:49:49;7.20;;;0.80;;
77457;SDS011;66541;49.346;8.648;2023-02-19T14:52:21;4.80;;;0.70;;
77457;SDS011;66541;49.346;8.648;2023-02-19T14:55:08;3.88;;;0.85;;
77457;SDS011;66541;49.346;8.648;2023-02-19T14:57:40;6.15;;;0.80;;
77457;SDS011;66541;49.346;8.648;2023-02-19T15:02:49;5.00;;;0.80;;
77457;SDS011;66541;49.346;8.648;2023-02-19T15:05:15;5.72;;;1.00;;
77457;SDS011;66541;49.346;8.648;2023-02-19T15:07:46;5.00;;;0.80;;
77457;SDS011;66541;49.346;8.648;2023-02-19T15:10:11;4.50;;;0.63;;
77457;SDS011;66541;49.346;8.648;2023-02-19T15:12:40;5.32;;;1.55;;
77457;SDS011;66541;49.346;8.648;2023-02-19T15:15:14;5.47;;;0.80;;
77457;SDS011;66541;49.346;8.648;2023-02-19T15:17:53;4.65;;;0.80;;
77457;SDS011;66541;49.346;8.648;2023-02-19T15:20:20;6.22;;;1.20;;
77457;SDS011;66541;49.346;8.648;2023-02-19T15:22:47;9.18;;;1.80;;
77457;SDS011;66541;49.346;8.648;2023-02-19T15:25:16;3.88;;;0.68;;
77457;SDS011;66541;49.346;8.648;2023-02-19T15:27:43;5.93;;;0.70;;
77457;SDS011;66541;49.346;8.648;2023-02-19T15:30:22;6.47;;;1.00;;
77457;SDS011;66541;49.346;8.648;2023-02-19T15:32:50;5.80;;;1.10;;
77457;SDS011;66541;49.346;8.648;2023-02-19T15:35:27;4.57;;;0.63;;
77457;SDS011;66541;49.346;8.648;2023-02-19T15:37:54;5.15;;;0.98;;
77457;SDS011;66541;49.346;8.648;2023-02-19T15:40:22;5.40;;;1.08;;
77457;SDS011;66541;49.346;8.648;2023-02-19T15:42:50;6.78;;;0.95;;
77457;SDS011;66541;49.346;8.648;2023-02-19T15:47:55;6.10;;;0.80;;
77457;SDS011;66541;49.346;8.648;2023-02-19T15:50:34;4.80;;;1.17;;
77457;SDS011;66541;49.346;8.648;2023-02-19T15:58:21;5.03;;;0.80;;
77457;SDS011;66541;49.346;8.648;2023-02-19T16:01:23;5.95;;;0.65;;
77457;SDS011;66541;49.346;8.648;2023-02-19T16:03:42;3.80;;;0.90;;
77457;SDS011;66541;49.346;8.648;2023-02-19T16:06:09;6.88;;;2.17;;
77457;SDS011;66541;49.346;8.648;2023-02-19T16:08:39;6.10;;;1.60;;
77457;SDS011;66541;49.346;8.648;2023-02-19T16:13:47;6.07;;;1.08;;
77457;SDS011;66541;49.346;8.648;2023-02-19T16:16:27;3.15;;;0.65;;
77457;SDS011;66541;49.346;8.648;2023-02-19T16:18:54;3.53;;;0.70;;
77457;SDS011;66541;49.346;8.648;2023-02-19T16:21:20;5.78;;;0.70;;
77457;SDS011;66541;49.346;8.648;2023-02-19T16:23:48;6.50;;;0.82;;
77457;SDS011;66541;49.346;8.648;2023-02-19T16:26:18;7.13;;;1.17;;
77457;SDS011;66541;49.346;8.648;2023-02-19T16:28:44;3.95;;;0.70;;
77457;SDS011;66541;49.346;8.648;2023-02-19T16:31:14;7.07;;;0.90;;
77457;SDS011;66541;49.346;8.648;2023-02-19T16:33:43;5.45;;;1.02;;
77457;SDS011;66541;49.346;8.648;2023-02-19T16:36:15;5.28;;;1.30;;
77457;SDS011;66541;49.346;8.648;2023-02-19T16:41:30;6.00;;;1.27;;
77457;SDS011;66541;49.346;8.648;2023-02-19T16:46:44;9.60;;;3.97;;
77457;SDS011;66541;49.346;8.648;2023-02-19T16:49:09;8.02;;;1.50;;
77457;SDS011;66541;49.346;8.648;2023-02-19T16:51:37;7.65;;;1.70;;
77457;SDS011;66541;49.346;8.648;2023-02-19T16:54:02;9.40;;;2.47;;
77457;SDS011;66541;49.346;8.648;2023-02-19T16:56:29;6.05;;;0.95;;
77457;SDS011;66541;49.346;8.648;2023-02-19T16:58:54;6.30;;;0.90;;
77457;SDS011;66541;49.346;8.648;2023-02-19T17:01:20;7.30;;;1.15;;
77457;SDS011;66541;49.346;8.648;2023-02-19T17:03:45;6.60;;;1.08;;
77457;SDS011;66541;49.346;8.648;2023-02-19T17:06:11;6.70;;;1.05;;
77457;SDS011;66541;49.346;8.648;2023-02-19T17:08:39;8.52;;;1.30;;
77457;SDS011;66541;49.346;8.648;2023-02-19T17:11:06;8.82;;;0.98;;
77457;SDS011;66541;49.346;8.648;2023-02-19T17:13:35;6.05;;;0.95;;
77457;SDS011;66541;49.346;8.648;2023-02-19T17:16:00;6.00;;;1.13;;
77457;SDS011;66541;49.346;8.648;2023-02-19T17:18:26;6.47;;;1.27;;
77457;SDS011;66541;49.346;8.648;2023-02-19T17:20:54;12.07;;;1.75;;
77457;SDS011;66541;49.346;8.648;2023-02-19T17:23:22;7.75;;;1.10;;
77457;SDS011;66541;49.346;8.648;2023-02-19T17:25:47;8.00;;;1.15;;
77457;SDS011;66541;49.346;8.648;2023-02-19T17:28:12;8.45;;;1.27;;
77457;SDS011;66541;49.346;8.648;2023-02-19T17:30:38;6.75;;;1.30;;